createdAt,value
2023-05-15T00:00:28.205Z,97765.45
2023-05-15T00:03:27.424Z,97765.56
2023-05-15T00:10:35.384Z,97772.34
2023-05-15T00:17:37.464Z,97740.47
2023-05-15T00:20:11.160Z,97741.02
2023-05-15T00:22:49.446Z,97738.64
2023-05-15T00:25:21.609Z,97740.33
2023-05-15T00:28:02.480Z,97729.59
2023-05-15T00:34:56.963Z,97742.67
2023-05-15T00:39:15.947Z,97743.23
2023-05-15T00:46:21.147Z,97720.66
2023-05-15T00:49:01.757Z,97712.59
2023-05-15T00:56:16.936Z,97685.85
2023-05-15T00:59:14.565Z,97682.73
2023-05-15T01:01:53.663Z,97674.86
2023-05-15T01:04:26.326Z,97671.15
2023-05-15T01:07:06.020Z,97672.49
2023-05-15T01:09:39.749Z,97667.21
2023-05-15T01:12:19.850Z,97671.15
2023-05-15T01:14:52.630Z,97660.03
2023-05-15T01:17:32.455Z,97655.17
2023-05-15T01:20:21.974Z,97657.95
2023-05-15T01:24:11.217Z,97660.73
2023-05-15T01:39:40.702Z,97636.12
2023-05-15T01:51:26.008Z,97635.45
2023-05-15T01:54:32.258Z,97637.04
2023-05-15T01:57:12.764Z,97639.30
2023-05-15T02:00:24.084Z,97628.35
2023-05-15T02:03:08.378Z,97621.46
2023-05-15T02:06:26.900Z,97610.40
2023-05-15T02:09:06.094Z,97607.21
2023-05-15T02:11:39.367Z,97602.10
2023-05-15T02:14:19.514Z,97599.04
2023-05-15T02:16:51.687Z,97603.25
2023-05-15T02:19:30.604Z,97601.42
2023-05-15T02:22:02.763Z,97597.17
2023-05-15T02:24:41.521Z,97593.13
2023-05-15T02:31:33.636Z,97587.52
2023-05-15T02:38:55.232Z,97583.00
2023-05-15T02:46:02.675Z,97575.45
2023-05-15T02:48:35.428Z,97578.55
2023-05-15T02:51:15.089Z,97578.29
2023-05-15T02:53:47.740Z,97576.72
2023-05-15T02:56:26.568Z,97570.02
2023-05-15T02:58:58.822Z,97563.63
2023-05-15T03:01:38.030Z,97561.05
2023-05-15T03:08:42.604Z,97560.11
2023-05-15T03:11:15.240Z,97558.85
2023-05-15T03:13:47.426Z,97555.53
2023-05-15T03:16:26.708Z,97555.70
2023-05-15T03:18:58.942Z,97552.20
2023-05-15T03:21:37.699Z,97551.84
2023-05-15T03:24:10.478Z,97544.04
2023-05-15T03:26:49.565Z,97537.83
2023-05-15T03:29:21.998Z,97534.41
2023-05-15T03:32:00.688Z,97531.32
2023-05-15T03:34:33.513Z,97527.20
2023-05-15T03:37:12.717Z,97522.98
2023-05-15T03:44:07.896Z,97522.48
2023-05-15T03:51:14.344Z,97524.67
2023-05-15T03:53:47.023Z,97522.86
2023-05-15T03:56:30.646Z,97524.33
2023-05-15T04:04:05.108Z,97518.30
2023-05-15T04:06:43.617Z,97513.65
2023-05-15T04:09:15.750Z,97520.00
2023-05-15T04:11:54.605Z,97514.89
2023-05-15T04:14:26.805Z,97508.05
2023-05-15T04:17:05.908Z,97509.60
2023-05-15T04:19:39.140Z,97501.27
2023-05-15T04:23:05.886Z,97503.14
2023-05-15T04:30:14.451Z,97494.70
2023-05-15T04:37:15.746Z,97492.41
2023-05-15T04:44:11.457Z,97489.48
2023-05-15T04:51:15.005Z,97488.89
2023-05-15T04:53:47.108Z,97486.30
2023-05-15T04:56:25.784Z,97493.14
2023-05-15T04:58:57.916Z,97492.47
2023-05-15T05:01:37.816Z,97492.75
2023-05-15T05:04:10.147Z,97485.31
2023-05-15T05:06:42.707Z,97475.02
2023-05-15T05:13:47.753Z,97466.71
2023-05-15T05:16:20.369Z,97457.52
2023-05-15T05:18:58.925Z,97452.43
2023-05-15T05:21:32.864Z,97448.51
2023-05-15T05:24:12.470Z,97447.71
2023-05-15T05:26:46.500Z,97442.98
2023-05-15T05:29:24.899Z,97446.30
2023-05-15T05:31:57.250Z,97447.14
2023-05-15T05:43:35.107Z,97441.98
2023-05-15T05:50:23.448Z,97430.36
2023-05-15T05:56:33.364Z,97439.61
2023-05-15T05:59:35.927Z,97434.55
2023-05-15T06:02:08.988Z,97432.31
2023-05-15T06:04:57.800Z,97431.57
2023-05-15T06:07:30.150Z,97432.46
2023-05-15T06:10:30.769Z,97433.52
2023-05-15T06:13:02.997Z,97427.05
2023-05-15T06:15:35.131Z,97421.06
2023-05-15T06:18:07.973Z,97422.55
2023-05-15T06:21:23.481Z,97423.48
2023-05-15T06:23:55.796Z,97423.52
2023-05-15T06:26:27.945Z,97418.02
2023-05-15T06:33:32.981Z,97417.65
2023-05-15T06:36:09.223Z,97414.90
2023-05-15T06:38:41.393Z,97411.18
2023-05-15T06:41:13.655Z,97405.30
2023-05-15T06:44:36.999Z,97399.15
2023-05-15T06:47:09.810Z,97403.02
2023-05-15T06:49:42.200Z,97400.96
2023-05-15T06:53:08.445Z,97398.02
2023-05-15T06:59:35.590Z,97392.93
2023-05-15T07:02:23.509Z,97393.37
2023-05-15T07:09:29.175Z,97386.17
2023-05-15T07:13:05.275Z,97382.30
2023-05-15T07:20:13.947Z,97377.73
2023-05-15T07:22:55.711Z,97380.69
2023-05-15T07:26:23.738Z,97377.83
2023-05-15T07:29:50.061Z,97386.70
2023-05-15T07:32:22.300Z,97381.35
2023-05-15T07:34:55.243Z,97384.56
2023-05-15T07:37:27.688Z,97384.19
2023-05-15T07:40:22.542Z,97381.68
2023-05-15T07:42:54.675Z,97380.17
2023-05-15T07:54:09.214Z,97392.20
2023-05-15T07:56:41.711Z,97387.58
2023-05-15T08:00:02.761Z,97390.15
2023-05-15T08:02:46.436Z,97389.52
2023-05-15T08:06:04.023Z,97386.21
2023-05-15T08:15:54.614Z,97379.48
2023-05-15T08:23:43.986Z,97381.20
2023-05-15T08:30:50.116Z,97380.52
2023-05-15T08:33:42.847Z,97379.67
2023-05-15T08:36:15.301Z,97380.45
2023-05-15T08:39:09.337Z,97377.83
2023-05-15T08:41:48.364Z,97373.19
2023-05-15T08:44:22.544Z,97376.10
2023-05-15T08:47:09.717Z,97379.98
2023-05-15T09:00:39.970Z,97395.30
2023-05-15T09:07:36.229Z,97396.50
2023-05-15T09:10:10.902Z,97398.35
2023-05-15T09:13:28.078Z,97392.97
2023-05-15T09:16:03.548Z,97384.38
2023-05-15T09:19:22.727Z,97385.48
2023-05-15T09:22:18.118Z,97384.65
2023-05-15T09:24:53.189Z,97386.35
2023-05-15T09:27:26.382Z,97391.25
2023-05-15T09:30:47.624Z,97395.75
2023-05-15T09:33:20.112Z,97399.35
2023-05-15T09:35:53.136Z,97405.58
2023-05-15T09:38:25.646Z,97405.85
2023-05-15T09:41:07.276Z,97403.60
2023-05-15T09:43:40.371Z,97405.23
2023-05-15T09:50:07.896Z,97406.53
2023-05-15T09:53:21.476Z,97405.44
2023-05-15T09:55:56.258Z,97399.27
2023-05-15T09:59:16.596Z,97398.27
2023-05-15T10:06:10.032Z,97402.20
2023-05-15T10:08:43.301Z,97403.06
2023-05-15T10:14:51.451Z,97416.80
2023-05-15T10:17:36.125Z,97417.87
2023-05-15T10:35:52.674Z,97421.31
2023-05-15T10:38:26.891Z,97415.22
2023-05-15T10:41:47.928Z,97410.59
2023-05-15T10:44:21.667Z,97404.83
2023-05-15T10:59:37.074Z,97417.33
2023-05-15T11:07:30.720Z,97414.05
2023-05-15T11:14:21.467Z,97411.91
2023-05-15T11:30:27.065Z,97405.72
2023-05-15T11:36:48.544Z,97391.73
2023-05-15T11:39:28.130Z,97390.38
2023-05-15T11:46:19.290Z,97385.05
2023-05-15T11:53:33.416Z,97375.83
2023-05-15T11:56:29.050Z,97366.92
2023-05-15T12:04:34.849Z,97350.06
2023-05-15T12:07:09.022Z,97356.70
2023-05-15T12:10:05.861Z,97350.80
2023-05-15T12:21:49.832Z,97343.02
2023-05-15T12:37:39.888Z,97341.17
2023-05-15T12:40:53.861Z,97337.80
2023-05-15T12:48:01.138Z,97322.56
2023-05-15T13:08:08.807Z,97322.70
2023-05-15T13:11:01.097Z,97325.42
2023-05-15T13:22:40.181Z,97318.52
2023-05-15T13:25:45.167Z,97313.63
2023-05-15T13:28:18.370Z,97309.50
2023-05-15T13:30:50.452Z,97307.81
2023-05-15T13:33:51.792Z,97298.24
2023-05-15T13:40:22.495Z,97302.04
2023-05-15T13:42:54.848Z,97298.04
2023-05-15T13:45:39.546Z,97307.36
2023-05-15T13:48:19.533Z,97309.78
2023-05-15T13:51:12.254Z,97307.58
2023-05-15T13:53:44.469Z,97301.88
2023-05-15T13:56:23.639Z,97306.21
2023-05-15T13:59:11.891Z,97304.09
2023-05-15T14:01:44.199Z,97305.96
2023-05-15T14:08:54.453Z,97313.08
2023-05-15T14:15:26.891Z,97314.04
2023-05-15T14:17:59.325Z,97310.51
2023-05-15T14:20:31.831Z,97316.21
2023-05-15T14:23:04.082Z,97319.96
2023-05-15T14:25:36.239Z,97317.65
2023-05-15T14:28:14.402Z,97317.52
2023-05-15T14:30:46.559Z,97312.63
2023-05-15T14:33:18.703Z,97316.75
2023-05-15T14:35:50.941Z,97316.21
2023-05-15T14:45:25.884Z,97339.71
2023-05-15T14:51:55.784Z,97350.06
2023-05-15T14:54:28.120Z,97349.77
2023-05-15T14:57:07.081Z,97350.44
2023-05-15T14:59:39.485Z,97356.16
2023-05-15T15:02:53.163Z,97355.13
2023-05-15T15:05:25.702Z,97355.58
2023-05-15T15:12:17.697Z,97368.03
2023-05-15T15:18:52.146Z,97363.58
2023-05-15T15:22:05.970Z,97358.48
2023-05-15T15:24:38.098Z,97357.66
2023-05-15T15:30:43.881Z,97353.59
2023-05-15T15:33:16.354Z,97355.02
2023-05-15T15:35:48.532Z,97356.39
2023-05-15T15:38:20.765Z,97356.41
2023-05-15T15:41:11.158Z,97358.93
2023-05-15T15:43:43.421Z,97355.36
2023-05-15T15:46:15.572Z,97354.89
2023-05-15T15:48:47.907Z,97352.38
2023-05-15T15:51:20.137Z,97349.27
2023-05-15T15:53:58.373Z,97338.96
2023-05-15T15:56:30.574Z,97350.95
2023-05-15T15:59:02.843Z,97338.95
2023-05-15T16:01:35.650Z,97342.50
2023-05-15T16:07:53.038Z,97376.86
2023-05-15T16:10:25.304Z,97389.45
2023-05-15T16:17:31.489Z,97394.35
2023-05-15T16:23:36.072Z,97392.63
2023-05-15T16:30:48.042Z,97401.86
2023-05-15T16:34:09.035Z,97410.39
2023-05-15T16:37:34.116Z,97418.48
2023-05-15T16:44:39.688Z,97417.80
2023-05-15T16:47:13.408Z,97423.35
2023-05-15T16:49:51.606Z,97426.21
2023-05-15T16:52:23.800Z,97423.39
2023-05-15T16:55:03.404Z,97431.60
2023-05-15T16:57:35.735Z,97437.84
2023-05-15T17:00:30.968Z,97440.98
2023-05-15T17:03:08.310Z,97443.56
2023-05-15T17:05:41.269Z,97445.53
2023-05-15T17:08:13.575Z,97450.61
2023-05-15T17:10:52.855Z,97447.61
2023-05-15T17:13:27.667Z,97451.80
2023-05-15T17:25:31.021Z,97458.20
2023-05-15T17:32:35.882Z,97458.03
2023-05-15T17:35:15.838Z,97455.60
2023-05-15T17:37:48.157Z,97457.21
2023-05-15T17:45:03.252Z,97467.23
2023-05-15T17:51:56.573Z,97482.77
2023-05-15T17:54:54.052Z,97491.20
2023-05-15T18:04:57.192Z,97508.20
2023-05-15T18:08:30.863Z,97515.91
2023-05-15T18:11:17.692Z,97512.63
2023-05-15T18:14:40.409Z,97518.25
2023-05-15T18:30:06.784Z,97532.92
2023-05-15T18:32:39.476Z,97533.70
2023-05-15T18:35:18.025Z,97538.67
2023-05-15T18:38:31.048Z,97537.58
2023-05-15T18:41:10.124Z,97540.63
2023-05-15T18:45:21.552Z,97548.47
2023-05-15T18:47:57.709Z,97550.50
2023-05-15T18:51:03.995Z,97554.86
2023-05-15T18:53:42.977Z,97560.04
2023-05-15T19:03:51.937Z,97574.98
2023-05-15T19:06:24.158Z,97580.30
2023-05-15T19:13:05.992Z,97585.35
2023-05-15T19:20:44.964Z,97595.85
